Time;durP1;ratioP1;P1;durP2;ratioP2;P2;SDS_P1;SDS_P2;PMS_P1;PMS_P2;Temp;Humidity;BMP_temperature;BMP_pressure;BME280_temperature;BME280_humidity;BME280_pressure;Samples;Min_cycle;Max_cycle;Signal;HPM_P1;HPM_P2
2022/04/30 00:02:07;;;;;;;11.37;8.83;;;12.10;99.90;;;;;;5010686;28;20185;-30
2022/04/30 00:04:39;;;;;;;9.93;8.93;;;12.10;99.90;;;;;;4978248;28;20179;-30
2022/04/30 00:07:05;;;;;;;13.13;9.20;;;12.10;99.90;;;;;;5010220;28;20232;-30
2022/04/30 00:09:32;;;;;;;11.30;8.70;;;12.10;99.90;;;;;;4978203;28;20239;-31
2022/04/30 00:11:58;;;;;;;9.23;8.33;;;12.10;99.90;;;;;;4994517;28;20188;-31
2022/04/30 00:14:26;;;;;;;10.10;8.97;;;12.10;99.90;;;;;;5010645;28;20227;-31
2022/04/30 00:16:52;;;;;;;9.73;8.57;;;12.00;99.90;;;;;;4978043;28;20179;-29
2022/04/30 00:19:19;;;;;;;9.83;8.27;;;12.10;99.90;;;;;;4977924;28;20196;-31
2022/04/30 00:21:45;;;;;;;10.17;9.17;;;12.00;99.90;;;;;;5010262;28;20241;-30
2022/04/30 00:24:11;;;;;;;9.73;8.73;;;12.00;99.90;;;;;;5011782;28;20205;-30
2022/04/30 00:26:37;;;;;;;9.53;8.63;;;11.90;99.90;;;;;;4978152;28;20179;-30
2022/04/30 00:29:03;;;;;;;10.40;8.80;;;11.90;99.90;;;;;;5010050;28;20219;-30
2022/04/30 00:31:29;;;;;;;10.30;8.87;;;11.90;99.90;;;;;;5010459;28;20230;-31
2022/04/30 00:33:56;;;;;;;9.43;8.53;;;11.90;99.90;;;;;;5010221;28;20210;-31
2022/04/30 00:36:22;;;;;;;9.33;7.93;;;11.90;99.90;;;;;;4977466;28;20171;-30
2022/04/30 00:38:49;;;;;;;11.00;8.57;;;11.80;99.90;;;;;;5010512;28;20206;-29
2022/04/30 00:41:17;;;;;;;9.53;8.53;;;11.80;99.90;;;;;;4977872;28;20187;-30
2022/04/30 00:43:47;;;;;;;10.97;8.87;;;11.80;99.90;;;;;;5010088;28;20183;-30
2022/04/30 00:46:17;;;;;;;10.00;8.97;;;11.80;99.90;;;;;;4993886;28;20194;-29
2022/04/30 00:48:43;;;;;;;11.00;8.07;;;11.80;99.90;;;;;;4977135;28;20218;-31
2022/04/30 00:51:11;;;;;;;9.63;8.53;;;11.80;99.90;;;;;;5009817;28;20184;-29
2022/04/30 00:53:39;;;;;;;8.73;7.93;;;11.80;99.90;;;;;;4993538;28;20182;-29
2022/04/30 00:56:11;;;;;;;11.07;8.83;;;11.70;99.90;;;;;;4993847;28;20238;-31
2022/04/30 00:58:40;;;;;;;10.50;8.93;;;11.70;99.90;;;;;;4977350;28;20753;-29
2022/04/30 01:01:06;;;;;;;10.33;9.33;;;11.70;99.90;;;;;;5011406;28;20632;-30
2022/04/30 01:03:46;;;;;;;9.90;9.00;;;11.50;99.90;;;;;;4979417;28;20187;-30
2022/04/30 01:06:12;;;;;;;13.50;9.30;;;11.50;99.90;;;;;;5011237;28;20181;-31
2022/04/30 01:08:38;;;;;;;10.90;9.67;;;11.40;99.90;;;;;;4993688;28;20282;-30
2022/04/30 01:11:05;;;;;;;11.00;9.90;;;11.50;99.90;;;;;;4993245;28;20250;-30
2022/04/30 01:13:36;;;;;;;10.87;9.77;;;11.40;99.90;;;;;;5009675;28;20186;-31
2022/04/30 01:16:03;;;;;;;10.50;9.40;;;11.50;99.90;;;;;;4977507;28;20278;-30
2022/04/30 01:18:30;;;;;;;12.63;10.07;;;11.50;99.90;;;;;;4993538;28;20200;-31
2022/04/30 01:21:01;;;;;;;10.63;9.53;;;11.50;99.90;;;;;;4980283;28;20186;-30
2022/04/30 01:23:27;;;;;;;10.23;9.17;;;11.50;99.90;;;;;;4997455;28;20244;-30
2022/04/30 01:25:54;;;;;;;10.93;9.83;;;11.60;99.90;;;;;;4997511;28;20198;-30
2022/04/30 01:28:20;;;;;;;10.70;9.70;;;11.50;99.90;;;;;;5013352;28;20222;-30
2022/04/30 01:30:46;;;;;;;11.23;9.57;;;11.50;99.90;;;;;;4997167;28;20179;-30
2022/04/30 01:38:40;;;;;;;9.60;8.70;;;11.50;99.90;;;;;;5013047;28;20206;-31
2022/04/30 01:41:07;;;;;;;10.77;9.23;;;11.50;99.90;;;;;;4980224;28;20187;-30
2022/04/30 01:43:33;;;;;;;10.70;9.60;;;11.50;99.90;;;;;;5014965;28;20211;-30
2022/04/30 01:46:03;;;;;;;10.40;9.30;;;11.60;99.90;;;;;;4996715;28;20197;-30
2022/04/30 01:48:30;;;;;;;10.47;9.37;;;11.60;99.90;;;;;;4997052;28;20213;-31
2022/04/30 01:50:56;;;;;;;10.47;8.93;;;11.60;99.90;;;;;;4980568;28;20207;-29
2022/04/30 01:53:22;;;;;;;10.03;8.90;;;11.60;99.90;;;;;;4996734;28;20210;-30
2022/04/30 01:55:48;;;;;;;10.10;9.10;;;11.60;99.90;;;;;;4996818;28;20233;-30
2022/04/30 01:58:26;;;;;;;9.47;8.47;;;11.60;99.90;;;;;;4982594;28;20250;-30
2022/04/30 02:00:53;;;;;;;9.63;8.73;;;11.50;99.90;;;;;;4996306;28;20203;-30
2022/04/30 02:03:19;;;;;;;9.80;8.90;;;11.50;99.90;;;;;;4980529;28;20184;-30
2022/04/30 02:05:45;;;;;;;10.37;9.27;;;11.50;99.90;;;;;;5014105;28;20171;-29
2022/04/30 02:08:12;;;;;;;9.57;8.67;;;11.40;99.90;;;;;;4996617;28;20219;-30
2022/04/30 02:10:40;;;;;;;10.10;9.10;;;11.40;99.90;;;;;;4980165;28;20183;-30
2022/04/30 02:13:06;;;;;;;10.30;9.20;;;11.40;99.90;;;;;;4980398;28;20184;-30
2022/04/30 02:15:36;;;;;;;10.10;9.10;;;11.40;99.90;;;;;;5012937;28;20183;-30
2022/04/30 02:18:03;;;;;;;11.97;8.63;;;11.40;99.90;;;;;;4980096;28;20203;-30
2022/04/30 02:20:33;;;;;;;9.50;8.50;;;11.30;99.90;;;;;;4979924;28;20214;-30
2022/04/30 02:23:04;;;;;;;10.10;9.20;;;11.30;99.90;;;;;;4996783;28;20194;-30
2022/04/30 02:25:31;;;;;;;9.93;8.93;;;11.40;99.90;;;;;;5012668;28;20241;-30
2022/04/30 02:27:59;;;;;;;9.63;8.73;;;11.30;99.90;;;;;;4980255;28;20278;-31
2022/04/30 02:30:29;;;;;;;14.97;9.53;;;11.30;99.90;;;;;;4995938;28;20183;-30
2022/04/30 02:32:57;;;;;;;10.13;9.03;;;11.30;99.90;;;;;;4995961;28;20175;-31
2022/04/30 02:35:25;;;;;;;10.73;9.30;;;11.30;99.90;;;;;;4980376;28;20210;-31
2022/04/30 02:37:54;;;;;;;10.13;8.80;;;11.30;99.90;;;;;;4996107;28;20210;-31
2022/04/30 02:40:21;;;;;;;10.07;9.07;;;11.30;99.90;;;;;;5012324;28;20256;-31
2022/04/30 02:42:50;;;;;;;10.60;9.47;;;11.30;99.90;;;;;;5012620;28;20190;-31
2022/04/30 02:45:16;;;;;;;11.23;9.90;;;11.20;99.90;;;;;;4995753;28;20659;-31
2022/04/30 02:47:44;;;;;;;12.50;10.07;;;11.20;99.90;;;;;;4995630;28;20758;-31
2022/04/30 02:50:13;;;;;;;11.00;9.90;;;11.20;99.90;;;;;;5013417;28;20221;-31
2022/04/30 02:52:41;;;;;;;13.73;10.20;;;11.30;99.90;;;;;;4996117;28;20168;-31
2022/04/30 02:55:07;;;;;;;16.97;10.73;;;11.20;99.90;;;;;;4995898;28;20172;-31
2022/04/30 03:00:37;;;;;;;10.37;9.37;;;11.20;99.90;;;;;;5011827;28;20264;-31
2022/04/30 03:03:42;;;;;;;11.80;9.80;;;11.20;99.90;;;;;;5004779;28;20306;-30
2022/04/30 03:06:09;;;;;;;12.43;10.50;;;11.30;99.90;;;;;;4979336;28;20205;-31
2022/04/30 03:08:35;;;;;;;11.93;10.73;;;11.30;99.90;;;;;;4979305;28;20216;-31
2022/04/30 03:11:03;;;;;;;11.30;10.10;;;11.20;99.90;;;;;;5013097;28;20172;-31
2022/04/30 03:13:30;;;;;;;14.13;11.00;;;11.30;99.90;;;;;;5013461;28;20182;-31
2022/04/30 03:21:41;;;;;;;12.27;10.77;;;11.30;99.90;;;;;;4995096;28;20186;-30
2022/04/30 03:21:46;;;;;;;14.07;10.90;;;11.30;99.90;;;;;;4995330;28;20183;-30
2022/04/30 03:24:18;;;;;;;11.63;10.37;;;11.30;99.90;;;;;;5012925;28;20537;-31
2022/04/30 03:26:48;;;;;;;12.37;11.07;;;11.30;99.90;;;;;;4995432;28;20183;-31
2022/04/30 03:29:15;;;;;;;12.43;10.50;;;11.30;99.90;;;;;;4994517;28;20246;-31
2022/04/30 03:31:42;;;;;;;13.23;11.13;;;11.40;99.90;;;;;;5011684;28;20192;-31
2022/04/30 03:34:09;;;;;;;12.47;10.80;;;11.30;99.90;;;;;;4995239;28;20180;-31
2022/04/30 03:36:36;;;;;;;12.33;10.80;;;11.40;99.90;;;;;;4995079;28;20187;-31
2022/04/30 03:39:03;;;;;;;14.33;10.60;;;11.40;99.90;;;;;;4994770;28;20233;-31
2022/04/30 03:41:29;;;;;;;15.87;11.53;;;11.40;99.90;;;;;;4978964;28;20194;-31
2022/04/30 03:43:55;;;;;;;19.57;16.00;;;11.40;99.90;;;;;;4978301;28;20183;-31
2022/04/30 03:46:20;;;;;;;23.03;16.73;;;11.40;99.90;;;;;;4978895;28;20274;-31
2022/04/30 03:48:51;;;;;;;20.83;14.73;;;11.40;99.90;;;;;;4978634;28;20238;-31
2022/04/30 03:51:18;;;;;;;18.97;16.30;;;11.40;99.90;;;;;;4994671;28;20255;-31
2022/04/30 03:53:43;;;;;;;56.83;49.03;;;11.40;99.90;;;;;;4978182;28;20177;-30
2022/04/30 03:56:09;;;;;;;78.70;65.73;;;11.40;99.90;;;;;;4994521;28;20187;-31
2022/04/30 03:58:35;;;;;;;39.23;33.90;;;11.40;99.90;;;;;;4994553;28;20205;-31
2022/04/30 04:01:01;;;;;;;20.33;17.13;;;11.50;99.90;;;;;;4978406;28;20195;-31
2022/04/30 04:03:27;;;;;;;15.60;13.07;;;11.50;99.90;;;;;;5012117;28;20523;-31
2022/04/30 04:05:53;;;;;;;14.77;12.70;;;11.50;99.90;;;;;;4978362;28;20187;-31
2022/04/30 04:08:20;;;;;;;15.97;13.00;;;11.60;99.90;;;;;;4978162;28;20207;-31
2022/04/30 04:10:47;;;;;;;18.10;12.77;;;11.50;99.90;;;;;;4977550;28;20183;-31
2022/04/30 04:18:42;;;;;;;17.23;13.50;;;11.50;99.90;;;;;;5010464;28;20273;-31
2022/04/30 04:21:08;;;;;;;17.60;14.67;;;11.50;99.90;;;;;;4977762;28;20187;-31
2022/04/30 04:26:20;;;;;;;16.83;13.67;;;11.50;99.90;;;;;;5011898;28;20221;-31
2022/04/30 04:28:46;;;;;;;21.53;15.83;;;11.50;99.90;;;;;;4993826;28;20206;-31
2022/04/30 04:31:12;;;;;;;19.53;14.80;;;11.50;99.90;;;;;;5005520;28;20213;-31
2022/04/30 04:33:37;;;;;;;16.90;15.00;;;11.50;99.90;;;;;;4991887;28;20184;-31
2022/04/30 04:36:04;;;;;;;16.17;14.23;;;11.50;99.90;;;;;;4990644;28;20173;-31
2022/04/30 04:38:31;;;;;;;17.90;14.20;;;11.40;99.90;;;;;;4974929;28;20203;-31
2022/04/30 04:40:57;;;;;;;17.10;15.00;;;11.50;99.90;;;;;;4990935;28;20203;-31
2022/04/30 04:43:23;;;;;;;19.70;15.47;;;11.50;99.90;;;;;;4976713;28;20218;-31
2022/04/30 04:45:49;;;;;;;17.23;15.07;;;11.50;99.90;;;;;;4975056;28;20211;-31
2022/04/30 04:48:15;;;;;;;20.03;16.73;;;11.50;99.90;;;;;;4991478;28;20281;-32
2022/04/30 04:50:41;;;;;;;19.00;16.17;;;11.50;99.90;;;;;;5008689;28;20172;-31
2022/04/30 04:53:07;;;;;;;20.50;16.67;;;11.50;99.90;;;;;;4974051;28;20695;-31
2022/04/30 04:55:34;;;;;;;20.60;16.70;;;11.60;99.90;;;;;;4974519;28;20184;-31
2022/04/30 04:57:59;;;;;;;20.30;16.43;;;11.60;99.90;;;;;;4990846;28;20198;-31
2022/04/30 05:00:27;;;;;;;20.60;15.57;;;11.60;99.90;;;;;;4976272;28;20188;-32
2022/04/30 05:02:53;;;;;;;21.77;16.27;;;11.60;99.90;;;;;;4991373;28;20187;-32
2022/04/30 05:05:19;;;;;;;19.53;15.63;;;11.50;99.90;;;;;;4993165;28;20206;-31
2022/04/30 05:07:45;;;;;;;22.80;17.23;;;11.50;99.90;;;;;;4993328;28;20218;-31
2022/04/30 05:10:11;;;;;;;20.77;16.33;;;11.50;99.90;;;;;;4977205;28;20180;-31
2022/04/30 05:12:37;;;;;;;20.53;16.87;;;11.40;99.90;;;;;;4993350;28;20277;-32
2022/04/30 05:15:03;;;;;;;18.87;16.73;;;11.40;99.90;;;;;;4993559;28;20230;-32
2022/04/30 05:17:29;;;;;;;20.10;16.40;;;11.40;99.90;;;;;;4993128;28;20179;-31
2022/04/30 05:19:55;;;;;;;21.43;16.37;;;11.40;99.90;;;;;;4977110;28;20175;-31
2022/04/30 05:22:21;;;;;;;18.53;16.13;;;11.40;99.90;;;;;;4993539;28;20179;-32
2022/04/30 05:24:46;;;;;;;19.77;16.00;;;11.40;99.90;;;;;;4993498;28;20253;-31
2022/04/30 05:27:12;;;;;;;20.73;16.10;;;11.40;99.90;;;;;;4977025;28;20183;-31
2022/04/30 05:29:38;;;;;;;20.93;17.53;;;11.40;99.90;;;;;;4993041;28;20219;-32
2022/04/30 05:32:04;;;;;;;21.20;17.87;;;11.40;99.90;;;;;;4993003;28;20187;-31
2022/04/30 05:34:30;;;;;;;22.80;17.33;;;11.40;99.90;;;;;;4977490;28;20172;-31
2022/04/30 05:36:56;;;;;;;21.10;16.97;;;11.40;99.90;;;;;;4993253;28;20238;-31
2022/04/30 05:39:22;;;;;;;21.83;18.03;;;11.50;99.90;;;;;;4977040;28;20214;-31
2022/04/30 05:41:48;;;;;;;19.97;15.67;;;11.50;99.90;;;;;;4993379;28;20180;-31
2022/04/30 05:44:13;;;;;;;22.80;16.03;;;11.50;99.90;;;;;;4977110;28;20183;-32
2022/04/30 05:46:39;;;;;;;19.03;15.97;;;11.50;99.90;;;;;;4976625;28;20190;-31
2022/04/30 05:49:05;;;;;;;20.47;16.50;;;11.50;99.90;;;;;;4976859;28;20214;-31
2022/04/30 05:51:31;;;;;;;21.37;16.10;;;11.50;99.90;;;;;;4991500;28;20214;-31
2022/04/30 05:53:59;;;;;;;20.27;15.37;;;11.50;99.90;;;;;;4991434;28;20226;-31
2022/04/30 05:56:27;;;;;;;22.77;17.17;;;11.50;99.90;;;;;;4973678;28;20259;-32
2022/04/30 05:58:53;;;;;;;20.63;16.90;;;11.40;99.90;;;;;;4974736;28;20679;-32
2022/04/30 06:01:20;;;;;;;18.17;15.73;;;11.40;99.90;;;;;;4991248;28;20227;-31
2022/04/30 06:03:46;;;;;;;19.40;15.90;;;11.40;99.90;;;;;;5000586;28;20223;-31
2022/04/30 06:06:12;;;;;;;21.43;15.43;;;11.40;99.90;;;;;;4977343;28;20211;-32
2022/04/30 06:08:38;;;;;;;21.47;17.30;;;11.50;99.90;;;;;;4993096;28;20266;-32
2022/04/30 06:11:04;;;;;;;19.77;17.23;;;11.50;99.90;;;;;;4993598;28;20179;-32
2022/04/30 06:13:29;;;;;;;20.00;17.27;;;11.60;99.90;;;;;;4976786;28;20176;-31
2022/04/30 06:15:57;;;;;;;21.67;17.67;;;11.60;99.90;;;;;;4990943;28;20282;-31
2022/04/30 06:18:25;;;;;;;20.67;17.70;;;11.70;99.90;;;;;;4978867;28;20207;-32
2022/04/30 06:20:51;;;;;;;23.67;18.23;;;11.70;99.90;;;;;;4995182;28;20189;-32
2022/04/30 06:23:17;;;;;;;22.57;17.77;;;11.70;99.90;;;;;;4995919;28;20175;-32
2022/04/30 06:25:44;;;;;;;23.07;18.57;;;11.80;99.90;;;;;;4995394;28;20277;-32
2022/04/30 06:28:11;;;;;;;21.30;17.60;;;11.80;99.90;;;;;;5013728;28;20215;-31
2022/04/30 06:30:37;;;;;;;21.77;17.73;;;11.80;99.90;;;;;;5009029;28;20219;-31
2022/04/30 06:33:03;;;;;;;23.37;17.93;;;11.80;99.90;;;;;;4976757;28;20250;-31
2022/04/30 06:35:29;;;;;;;23.07;17.47;;;11.80;99.90;;;;;;4976574;28;20168;-31
2022/04/30 06:37:54;;;;;;;20.33;16.50;;;11.80;99.90;;;;;;4992957;28;20267;-32
2022/04/30 06:40:20;;;;;;;21.20;17.20;;;11.70;99.90;;;;;;4960325;28;20184;-32
2022/04/30 06:42:47;;;;;;;20.53;17.30;;;11.70;99.90;;;;;;4975134;28;20183;-31
2022/04/30 06:45:13;;;;;;;20.60;17.10;;;11.60;99.90;;;;;;4996077;28;20274;-31
2022/04/30 06:47:40;;;;;;;19.60;17.50;;;11.60;99.90;;;;;;4979817;28;20207;-32
2022/04/30 06:50:07;;;;;;;23.73;17.90;;;11.60;99.90;;;;;;4979653;28;20176;-31
2022/04/30 06:52:33;;;;;;;21.80;18.43;;;11.70;99.90;;;;;;4995904;28;20202;-32
2022/04/30 06:57:45;;;;;;;21.73;16.93;;;11.70;99.90;;;;;;5012139;28;20255;-32
2022/04/30 07:02:56;;;;;;;21.23;18.07;;;11.70;99.90;;;;;;4995636;28;20186;-32
2022/04/30 07:05:22;;;;;;;22.90;19.37;;;11.70;99.90;;;;;;4979268;28;20184;-32
2022/04/30 07:07:49;;;;;;;24.77;20.03;;;11.80;99.90;;;;;;4994935;28;20206;-31
2022/04/30 07:10:15;;;;;;;25.80;20.70;;;11.70;99.90;;;;;;4979434;28;20183;-32
2022/04/30 07:12:41;;;;;;;25.73;20.10;;;11.60;99.90;;;;;;4979546;28;20179;-32
2022/04/30 07:15:07;;;;;;;22.43;17.47;;;11.50;99.90;;;;;;4979382;28;20186;-31
2022/04/30 07:17:33;;;;;;;22.97;17.57;;;11.50;99.90;;;;;;4994061;28;20214;-31
2022/04/30 07:19:58;;;;;;;20.33;17.10;;;11.40;99.90;;;;;;4995252;28;20648;-31
2022/04/30 07:22:24;;;;;;;19.37;15.47;;;11.30;99.90;;;;;;4979017;28;20199;-32
2022/04/30 07:24:51;;;;;;;23.33;17.17;;;11.30;99.90;;;;;;4980824;28;20179;-32
2022/04/30 07:27:17;;;;;;;20.30;16.33;;;11.40;99.90;;;;;;4997333;28;20286;-32
2022/04/30 07:29:43;;;;;;;21.37;17.20;;;11.40;99.90;;;;;;4992739;28;20807;-31
2022/04/30 07:32:09;;;;;;;27.77;21.50;;;11.40;99.90;;;;;;4979392;28;20183;-31
2022/04/30 07:34:36;;;;;;;25.43;19.87;;;11.40;99.90;;;;;;4995043;28;20179;-32
2022/04/30 07:37:03;;;;;;;25.87;20.00;;;11.40;99.90;;;;;;4978628;28;20262;-31
2022/04/30 07:39:28;;;;;;;21.87;18.77;;;11.40;99.90;;;;;;4995003;28;20195;-31
2022/04/30 07:41:55;;;;;;;26.37;20.57;;;11.50;99.90;;;;;;5012529;28;20179;-31
2022/04/30 07:44:22;;;;;;;24.37;20.23;;;11.50;99.90;;;;;;4995035;28;20186;-31
2022/04/30 07:46:48;;;;;;;22.93;18.17;;;11.40;99.90;;;;;;4978633;28;20229;-31
2022/04/30 07:49:14;;;;;;;22.33;19.13;;;11.40;99.90;;;;;;4994855;28;20207;-31
2022/04/30 07:51:42;;;;;;;21.07;17.80;;;11.40;99.90;;;;;;4994489;28;20179;-31
2022/04/30 07:54:11;;;;;;;21.17;17.70;;;11.30;99.90;;;;;;4994930;28;20175;-31
2022/04/30 07:56:37;;;;;;;23.63;19.33;;;11.40;99.90;;;;;;4978513;28;20207;-30
2022/04/30 07:59:03;;;;;;;21.57;19.03;;;11.50;99.90;;;;;;4994556;28;20214;-31
2022/04/30 08:01:29;;;;;;;19.67;17.47;;;11.60;99.90;;;;;;4978138;28;20195;-31
2022/04/30 08:03:55;;;;;;;22.03;17.17;;;11.70;99.90;;;;;;5010840;28;20180;-31
2022/04/30 08:06:21;;;;;;;19.23;16.53;;;11.70;99.90;;;;;;4978183;28;20187;-31
2022/04/30 08:08:46;;;;;;;19.37;17.03;;;11.70;99.90;;;;;;4994363;28;20231;-31
2022/04/30 08:11:13;;;;;;;21.33;17.33;;;11.90;99.90;;;;;;4978104;28;20182;-31
2022/04/30 08:13:39;;;;;;;18.73;15.80;;;12.00;99.90;;;;;;4994491;28;20177;-31
2022/04/30 08:16:09;;;;;;;17.87;15.40;;;12.10;99.90;;;;;;5010640;28;20181;-31
2022/04/30 08:18:36;;;;;;;18.23;14.53;;;12.20;99.90;;;;;;4993927;28;20205;-31
2022/04/30 08:21:02;;;;;;;14.13;12.73;;;12.30;99.90;;;;;;4994012;28;20690;-31
2022/04/30 08:23:28;;;;;;;15.80;12.73;;;12.40;99.90;;;;;;4994073;28;20188;-31
2022/04/30 08:25:54;;;;;;;12.87;11.43;;;12.40;99.90;;;;;;4994189;28;20182;-31
2022/04/30 08:28:19;;;;;;;13.53;12.10;;;12.50;99.90;;;;;;4977933;28;20218;-30
2022/04/30 08:30:45;;;;;;;12.97;11.57;;;12.40;99.90;;;;;;4993688;28;20195;-30
2022/04/30 08:33:12;;;;;;;11.97;10.77;;;12.40;99.90;;;;;;4977245;28;20184;-30
2022/04/30 08:35:38;;;;;;;13.17;11.77;;;12.50;99.90;;;;;;5010346;28;20181;-30
2022/04/30 08:38:04;;;;;;;13.73;12.33;;;12.40;99.90;;;;;;4994014;28;20199;-30
2022/04/30 08:40:30;;;;;;;12.27;10.90;;;12.50;99.90;;;;;;4993793;28;20613;-31
2022/04/30 08:43:10;;;;;;;13.03;11.60;;;12.50;99.90;;;;;;4993801;28;20271;-30
2022/04/30 08:45:40;;;;;;;12.80;11.50;;;12.60;99.90;;;;;;5011352;28;20175;-30
2022/04/30 08:48:11;;;;;;;14.50;13.00;;;12.60;99.90;;;;;;5011273;28;20212;-29
2022/04/30 08:50:38;;;;;;;14.53;13.03;;;12.60;99.90;;;;;;4993563;28;20179;-30
2022/04/30 08:53:05;;;;;;;14.90;12.57;;;12.70;99.90;;;;;;4993539;28;20215;-31
2022/04/30 08:55:32;;;;;;;16.13;13.67;;;12.60;99.90;;;;;;5011265;28;20167;-30
2022/04/30 08:57:57;;;;;;;16.00;13.67;;;12.60;99.90;;;;;;4993592;28;20199;-30
2022/04/30 09:00:23;;;;;;;15.37;13.77;;;12.50;99.90;;;;;;4992644;28;20208;-30
2022/04/30 09:02:59;;;;;;;15.53;13.93;;;12.50;99.90;;;;;;4977379;28;20696;-30
2022/04/30 09:05:35;;;;;;;16.90;13.97;;;12.40;99.90;;;;;;4993812;28;20214;-31
2022/04/30 09:08:01;;;;;;;14.13;12.47;;;12.30;99.90;;;;;;4977306;28;20207;-30
2022/04/30 09:10:32;;;;;;;15.53;13.90;;;12.30;99.90;;;;;;4977251;28;20180;-30
2022/04/30 09:13:09;;;;;;;14.33;12.87;;;12.50;99.90;;;;;;4993230;28;20179;-30
2022/04/30 09:15:37;;;;;;;14.57;13.07;;;12.50;99.90;;;;;;4977437;28;20190;-29
2022/04/30 09:18:04;;;;;;;14.83;12.57;;;12.60;99.90;;;;;;4991845;28;20208;-30
2022/04/30 09:20:40;;;;;;;13.77;12.00;;;12.80;99.90;;;;;;4991691;28;20277;-31
2022/04/30 09:23:07;;;;;;;13.53;12.13;;;12.90;99.90;;;;;;4976784;28;20262;-30
2022/04/30 09:25:33;;;;;;;14.03;12.63;;;13.10;99.90;;;;;;4978687;28;20190;-30
2022/04/30 09:27:59;;;;;;;13.53;12.00;;;13.20;99.90;;;;;;4994689;28;20222;-31
2022/04/30 09:30:29;;;;;;;14.90;12.33;;;13.10;99.90;;;;;;4976469;28;20188;-30
2022/04/30 09:33:06;;;;;;;13.53;12.13;;;13.10;99.90;;;;;;4993273;28;20190;-30
2022/04/30 09:38:18;;;;;;;12.50;11.20;;;12.80;99.90;;;;;;5010885;28;20682;-30
2022/04/30 09:40:57;;;;;;;13.30;11.80;;;12.60;99.90;;;;;;4976528;28;20184;-30
2022/04/30 09:43:30;;;;;;;11.27;10.17;;;12.70;99.90;;;;;;4986246;28;20194;-30
2022/04/30 09:46:00;;;;;;;13.50;10.90;;;12.90;99.90;;;;;;4993701;28;20176;-31
2022/04/30 09:54:03;;;;;;;12.97;11.40;;;12.80;99.90;;;;;;5001479;28;20169;-31
2022/04/30 09:56:44;;;;;;;14.07;12.53;;;12.80;99.90;;;;;;4978737;28;20179;-30
2022/04/30 09:59:13;;;;;;;13.23;11.83;;;12.90;99.90;;;;;;4991895;28;20201;-31
2022/04/30 10:01:41;;;;;;;11.90;10.80;;;13.00;99.90;;;;;;4993887;28;20181;-30
2022/04/30 10:04:09;;;;;;;11.97;10.63;;;12.80;99.90;;;;;;4971074;28;20178;-31
2022/04/30 10:06:48;;;;;;;11.57;10.37;;;12.80;99.90;;;;;;4994669;28;20183;-30
2022/04/30 10:09:24;;;;;;;11.70;10.37;;;12.90;99.90;;;;;;5013777;28;20758;-31
2022/04/30 10:12:09;;;;;;;11.37;10.07;;;13.10;99.90;;;;;;4972531;28;20780;-31
2022/04/30 10:14:51;;;;;;;11.10;8.47;;;13.30;99.90;;;;;;4993952;28;20181;-30
2022/04/30 10:17:23;;;;;;;8.93;8.13;;;13.40;99.90;;;;;;4996570;28;20178;-31
2022/04/30 10:20:12;;;;;;;10.93;8.63;;;13.40;99.90;;;;;;4995613;28;20205;-32
2022/04/30 10:22:52;;;;;;;9.67;8.77;;;13.60;99.90;;;;;;4997185;28;20173;-31
2022/04/30 10:25:30;;;;;;;11.00;9.70;;;13.60;99.90;;;;;;4984586;28;20179;-31
2022/04/30 10:27:56;;;;;;;10.30;9.17;;;13.70;99.90;;;;;;5004637;28;20211;-30
2022/04/30 10:30:24;;;;;;;8.50;7.60;;;13.60;99.90;;;;;;4983198;28;20246;-31
2022/04/30 10:33:01;;;;;;;8.87;8.00;;;13.70;99.90;;;;;;5028917;28;20184;-31
2022/04/30 10:35:38;;;;;;;10.23;9.23;;;14.00;99.90;;;;;;4986448;28;20177;-32
2022/04/30 10:38:18;;;;;;;8.40;7.57;;;14.20;99.90;;;;;;4982308;28;20206;-31
2022/04/30 10:40:52;;;;;;;8.57;7.60;;;14.30;99.90;;;;;;4990407;28;20180;-30
2022/04/30 10:43:19;;;;;;;7.60;6.80;;;14.50;99.90;;;;;;5009959;28;20261;-31
2022/04/30 10:45:46;;;;;;;8.03;7.33;;;14.60;99.90;;;;;;4993161;28;20190;-30
2022/04/30 10:48:12;;;;;;;8.13;7.33;;;14.40;99.90;;;;;;4996392;28;20294;-30
2022/04/30 10:50:38;;;;;;;8.57;7.77;;;14.40;99.90;;;;;;4997064;28;20274;-31
2022/04/30 10:53:08;;;;;;;8.30;7.50;;;14.10;99.90;;;;;;5006294;28;20185;-30
2022/04/30 10:55:35;;;;;;;7.30;6.60;;;14.10;99.90;;;;;;4979809;28;20269;-30
2022/04/30 10:58:01;;;;;;;8.50;7.60;;;14.40;99.90;;;;;;4995234;28;20210;-31
2022/04/30 11:00:27;;;;;;;7.80;7.00;;;14.60;99.90;;;;;;4993259;28;20179;-31
2022/04/30 11:02:53;;;;;;;8.03;7.30;;;14.70;99.90;;;;;;4983458;28;20207;-31
2022/04/30 11:05:23;;;;;;;10.87;6.87;;;14.50;99.90;;;;;;4989022;28;20210;-31
2022/04/30 11:07:50;;;;;;;7.40;6.70;;;14.60;99.90;;;;;;4997151;28;20605;-31
2022/04/30 11:10:16;;;;;;;8.40;7.60;;;14.60;99.90;;;;;;5003720;28;20186;-29
2022/04/30 11:12:43;;;;;;;9.47;8.53;;;14.30;99.90;;;;;;4974847;28;20739;-30
2022/04/30 11:15:11;;;;;;;9.33;8.47;;;13.80;99.90;;;;;;4997409;28;20265;-30
2022/04/30 11:17:47;;;;;;;8.63;7.73;;;13.60;99.90;;;;;;4975701;28;20230;-30
2022/04/30 11:20:23;;;;;;;7.70;6.93;;;13.60;99.90;;;;;;4998149;28;20264;-30
2022/04/30 11:22:57;;;;;;;7.73;6.17;;;13.20;99.90;;;;;;5010690;28;20285;-31
2022/04/30 11:25:35;;;;;;;9.37;7.23;;;13.00;99.90;;;;;;5014979;28;20182;-30
2022/04/30 11:28:09;;;;;;;8.80;6.37;;;12.80;99.90;;;;;;4997298;28;20208;-30
2022/04/30 11:30:42;;;;;;;7.00;6.30;;;12.60;99.90;;;;;;5001718;28;20187;-30
2022/04/30 11:33:09;;;;;;;6.87;6.20;;;12.70;99.90;;;;;;5016931;28;20246;-29
2022/04/30 11:35:36;;;;;;;7.47;6.70;;;12.80;99.90;;;;;;5033026;28;20303;-30
2022/04/30 11:38:03;;;;;;;6.50;5.90;;;12.80;99.90;;;;;;5006070;28;20240;-31
2022/04/30 11:40:29;;;;;;;6.77;6.07;;;12.90;99.90;;;;;;5013312;28;20186;-29
2022/04/30 11:43:02;;;;;;;6.17;5.57;;;13.10;99.90;;;;;;4996590;28;20176;-30
2022/04/30 11:45:30;;;;;;;5.73;5.13;;;13.20;99.90;;;;;;5002465;28;20248;-30
2022/04/30 11:47:56;;;;;;;6.20;5.70;;;13.50;99.90;;;;;;5000194;28;20241;-30
2022/04/30 11:50:23;;;;;;;6.47;5.63;;;13.60;99.90;;;;;;4996865;28;20231;-30
2022/04/30 11:52:50;;;;;;;5.97;5.47;;;13.80;99.90;;;;;;4996774;28;20199;-30
2022/04/30 11:55:16;;;;;;;6.00;5.40;;;14.00;99.90;;;;;;4996483;28;20171;-30
2022/04/30 11:57:43;;;;;;;5.80;5.30;;;14.10;99.90;;;;;;4991286;28;20290;-30
2022/04/30 12:00:12;;;;;;;6.73;6.13;;;14.20;99.90;;;;;;4992780;28;20190;-30
2022/04/30 12:02:42;;;;;;;7.53;6.63;;;14.30;99.90;;;;;;4993165;28;20190;-30
2022/04/30 12:05:09;;;;;;;6.73;6.13;;;14.30;99.90;;;;;;4987067;28;20182;-31
2022/04/30 12:07:40;;;;;;;8.60;7.80;;;13.90;99.90;;;;;;4968692;28;20222;-31
2022/04/30 12:10:23;;;;;;;7.70;7.00;;;13.70;99.90;;;;;;4960811;28;20241;-30
2022/04/30 12:12:53;;;;;;;8.57;7.77;;;13.50;99.90;;;;;;4975712;28;20204;-30
2022/04/30 12:15:21;;;;;;;9.13;7.87;;;13.20;99.90;;;;;;4978274;28;20228;-31
2022/04/30 12:24:40;;;;;;;8.80;8.00;;;13.20;99.90;;;;;;4987339;28;20203;-30
2022/04/30 12:26:13;;;;;;;7.57;6.87;;;13.00;99.90;;;;;;4994953;28;20182;-30
2022/04/30 12:28:48;;;;;;;6.97;6.27;;;12.90;99.90;;;;;;5012746;28;20213;-32
2022/04/30 12:31:14;;;;;;;7.90;7.20;;;13.10;99.90;;;;;;4990511;28;20278;-31
2022/04/30 12:33:45;;;;;;;7.40;6.70;;;13.00;99.90;;;;;;4991155;28;20185;-31
2022/04/30 12:36:13;;;;;;;8.27;7.47;;;13.00;99.90;;;;;;5011262;28;20662;-30
2022/04/30 12:38:39;;;;;;;8.40;7.60;;;13.00;99.90;;;;;;4990827;28;20201;-31
2022/04/30 12:41:06;;;;;;;8.40;7.60;;;13.00;99.90;;;;;;4971160;28;20213;-32
2022/04/30 12:43:36;;;;;;;7.67;6.97;;;13.20;99.90;;;;;;4984655;28;20185;-31
2022/04/30 12:46:06;;;;;;;8.37;7.67;;;13.30;99.90;;;;;;4988494;28;20178;-31
2022/04/30 12:48:35;;;;;;;8.13;7.43;;;13.20;99.90;;;;;;4970086;28;20249;-31
2022/04/30 12:51:04;;;;;;;7.53;6.70;;;13.40;99.90;;;;;;4983561;28;20175;-30
2022/04/30 12:53:32;;;;;;;7.77;6.97;;;13.50;99.90;;;;;;4975206;28;20284;-30
2022/04/30 12:55:58;;;;;;;7.10;6.40;;;13.70;99.90;;;;;;4973440;28;20301;-30
2022/04/30 12:58:24;;;;;;;6.33;5.83;;;13.80;99.90;;;;;;4992822;28;20201;-31
2022/04/30 13:00:53;;;;;;;7.10;6.40;;;13.60;99.90;;;;;;4988108;28;20196;-30
2022/04/30 13:03:19;;;;;;;7.50;6.80;;;13.40;99.90;;;;;;4993213;28;20189;-30
2022/04/30 13:05:45;;;;;;;7.93;7.23;;;13.20;99.90;;;;;;4975437;28;20184;-31
2022/04/30 13:08:11;;;;;;;8.00;7.30;;;13.00;99.90;;;;;;4992014;28;20549;-31
2022/04/30 13:15:55;;;;;;;7.30;6.43;;;13.00;99.90;;;;;;4991430;28;20173;-31
2022/04/30 13:18:23;;;;;;;8.00;7.20;;;13.00;99.90;;;;;;4974463;28;20212;-31
2022/04/30 13:20:54;;;;;;;7.10;6.40;;;13.30;99.90;;;;;;4990685;28;20182;-30
2022/04/30 13:23:19;;;;;;;8.10;6.83;;;13.30;99.90;;;;;;5000418;28;20232;-31